sensor_id;sensor_type;location;lat;lon;timestamp;P1;durP1;ratioP1;P2;durP2;ratioP2
7308;SDS011;3695;53.330;9.876;2023-05-16T00:01:19;6.40;;;3.90;;
7308;SDS011;3695;53.330;9.876;2023-05-16T00:03:46;7.83;;;3.40;;
7308;SDS011;3695;53.330;9.876;2023-05-16T00:06:13;5.97;;;3.03;;
7308;SDS011;3695;53.330;9.876;2023-05-16T00:08:40;8.03;;;3.43;;
7308;SDS011;3695;53.330;9.876;2023-05-16T00:11:07;8.97;;;3.20;;
7308;SDS011;3695;53.330;9.876;2023-05-16T00:13:33;4.97;;;2.60;;
7308;SDS011;3695;53.330;9.876;2023-05-16T00:16:00;10.30;;;3.07;;
7308;SDS011;3695;53.330;9.876;2023-05-16T00:18:28;6.17;;;2.77;;
7308;SDS011;3695;53.330;9.876;2023-05-16T00:20:55;6.13;;;3.37;;
7308;SDS011;3695;53.330;9.876;2023-05-16T00:23:23;10.53;;;3.83;;
7308;SDS011;3695;53.330;9.876;2023-05-16T00:25:50;9.17;;;3.17;;
7308;SDS011;3695;53.330;9.876;2023-05-16T00:28:17;5.87;;;3.23;;
7308;SDS011;3695;53.330;9.876;2023-05-16T00:30:43;6.57;;;3.30;;
7308;SDS011;3695;53.330;9.876;2023-05-16T00:33:10;8.70;;;3.40;;
7308;SDS011;3695;53.330;9.876;2023-05-16T00:35:36;7.17;;;3.30;;
7308;SDS011;3695;53.330;9.876;2023-05-16T00:38:03;6.00;;;2.53;;
7308;SDS011;3695;53.330;9.876;2023-05-16T00:40:31;10.57;;;3.27;;
7308;SDS011;3695;53.330;9.876;2023-05-16T00:42:57;7.47;;;2.43;;
7308;SDS011;3695;53.330;9.876;2023-05-16T00:45:24;9.73;;;2.83;;
7308;SDS011;3695;53.330;9.876;2023-05-16T00:47:50;6.90;;;3.20;;
7308;SDS011;3695;53.330;9.876;2023-05-16T00:50:17;5.10;;;2.27;;
7308;SDS011;3695;53.330;9.876;2023-05-16T00:52:44;8.93;;;2.67;;
7308;SDS011;3695;53.330;9.876;2023-05-16T00:55:11;9.93;;;2.97;;
7308;SDS011;3695;53.330;9.876;2023-05-16T00:57:39;11.33;;;3.00;;
7308;SDS011;3695;53.330;9.876;2023-05-16T01:00:06;4.77;;;2.63;;
7308;SDS011;3695;53.330;9.876;2023-05-16T01:02:34;10.27;;;2.70;;
7308;SDS011;3695;53.330;9.876;2023-05-16T01:05:02;5.83;;;2.73;;
7308;SDS011;3695;53.330;9.876;2023-05-16T01:07:30;6.33;;;2.23;;
7308;SDS011;3695;53.330;9.876;2023-05-16T01:09:57;11.13;;;2.93;;
7308;SDS011;3695;53.330;9.876;2023-05-16T01:12:27;11.13;;;2.77;;
7308;SDS011;3695;53.330;9.876;2023-05-16T01:15:03;7.67;;;2.80;;
7308;SDS011;3695;53.330;9.876;2023-05-16T01:17:35;9.47;;;3.07;;
7308;SDS011;3695;53.330;9.876;2023-05-16T01:20:11;7.03;;;2.57;;
7308;SDS011;3695;53.330;9.876;2023-05-16T01:22:51;11.20;;;2.93;;
7308;SDS011;3695;53.330;9.876;2023-05-16T01:25:36;7.70;;;3.50;;
7308;SDS011;3695;53.330;9.876;2023-05-16T01:28:12;12.10;;;3.57;;
7308;SDS011;3695;53.330;9.876;2023-05-16T01:30:42;13.87;;;4.07;;
7308;SDS011;3695;53.330;9.876;2023-05-16T01:33:09;8.10;;;3.73;;
7308;SDS011;3695;53.330;9.876;2023-05-16T01:35:37;11.30;;;3.60;;
7308;SDS011;3695;53.330;9.876;2023-05-16T01:38:08;11.47;;;3.87;;
7308;SDS011;3695;53.330;9.876;2023-05-16T01:40:50;9.47;;;3.67;;
7308;SDS011;3695;53.330;9.876;2023-05-16T01:43:23;9.37;;;3.53;;
7308;SDS011;3695;53.330;9.876;2023-05-16T01:45:56;11.17;;;4.33;;
7308;SDS011;3695;53.330;9.876;2023-05-16T01:48:38;7.40;;;3.27;;
7308;SDS011;3695;53.330;9.876;2023-05-16T01:51:08;9.07;;;3.53;;
7308;SDS011;3695;53.330;9.876;2023-05-16T01:53:37;8.50;;;3.23;;
7308;SDS011;3695;53.330;9.876;2023-05-16T01:56:04;9.87;;;3.40;;
7308;SDS011;3695;53.330;9.876;2023-05-16T01:58:36;7.80;;;2.63;;
7308;SDS011;3695;53.330;9.876;2023-05-16T02:01:04;7.23;;;2.90;;
7308;SDS011;3695;53.330;9.876;2023-05-16T02:03:31;7.50;;;2.53;;
7308;SDS011;3695;53.330;9.876;2023-05-16T02:05:58;8.83;;;2.60;;
7308;SDS011;3695;53.330;9.876;2023-05-16T02:08:25;7.83;;;2.63;;
7308;SDS011;3695;53.330;9.876;2023-05-16T02:10:52;8.00;;;2.87;;
7308;SDS011;3695;53.330;9.876;2023-05-16T02:13:19;8.57;;;2.53;;
7308;SDS011;3695;53.330;9.876;2023-05-16T02:15:47;9.83;;;2.53;;
7308;SDS011;3695;53.330;9.876;2023-05-16T02:18:13;8.00;;;3.27;;
7308;SDS011;3695;53.330;9.876;2023-05-16T02:20:40;11.33;;;4.10;;
7308;SDS011;3695;53.330;9.876;2023-05-16T02:23:07;8.83;;;2.40;;
7308;SDS011;3695;53.330;9.876;2023-05-16T02:25:34;8.23;;;2.40;;
7308;SDS011;3695;53.330;9.876;2023-05-16T02:28:00;6.90;;;2.20;;
7308;SDS011;3695;53.330;9.876;2023-05-16T02:30:27;8.87;;;2.40;;
7308;SDS011;3695;53.330;9.876;2023-05-16T02:32:54;6.40;;;2.53;;
7308;SDS011;3695;53.330;9.876;2023-05-16T02:35:21;8.70;;;2.20;;
7308;SDS011;3695;53.330;9.876;2023-05-16T02:37:47;10.43;;;2.30;;
7308;SDS011;3695;53.330;9.876;2023-05-16T02:40:14;6.43;;;2.77;;
7308;SDS011;3695;53.330;9.876;2023-05-16T02:42:40;11.83;;;2.20;;
7308;SDS011;3695;53.330;9.876;2023-05-16T02:45:07;8.73;;;3.10;;
7308;SDS011;3695;53.330;9.876;2023-05-16T02:47:34;12.57;;;2.87;;
7308;SDS011;3695;53.330;9.876;2023-05-16T02:50:02;8.67;;;2.47;;
7308;SDS011;3695;53.330;9.876;2023-05-16T02:52:29;10.40;;;2.23;;
7308;SDS011;3695;53.330;9.876;2023-05-16T02:54:56;12.43;;;3.33;;
7308;SDS011;3695;53.330;9.876;2023-05-16T02:57:22;7.07;;;2.50;;
7308;SDS011;3695;53.330;9.876;2023-05-16T02:59:48;12.50;;;2.60;;
7308;SDS011;3695;53.330;9.876;2023-05-16T03:02:15;12.53;;;3.17;;
7308;SDS011;3695;53.330;9.876;2023-05-16T03:04:42;10.57;;;3.17;;
7308;SDS011;3695;53.330;9.876;2023-05-16T03:07:09;13.43;;;3.27;;
7308;SDS011;3695;53.330;9.876;2023-05-16T03:09:36;13.43;;;3.27;;
7308;SDS011;3695;53.330;9.876;2023-05-16T03:12:02;15.80;;;3.67;;
7308;SDS011;3695;53.330;9.876;2023-05-16T03:14:29;7.27;;;2.50;;
7308;SDS011;3695;53.330;9.876;2023-05-16T03:16:56;11.70;;;3.00;;
7308;SDS011;3695;53.330;9.876;2023-05-16T03:19:22;8.47;;;3.10;;
7308;SDS011;3695;53.330;9.876;2023-05-16T03:21:49;9.33;;;3.37;;
7308;SDS011;3695;53.330;9.876;2023-05-16T03:24:16;13.23;;;4.10;;
7308;SDS011;3695;53.330;9.876;2023-05-16T03:26:43;16.67;;;3.43;;
7308;SDS011;3695;53.330;9.876;2023-05-16T03:29:09;11.00;;;2.50;;
7308;SDS011;3695;53.330;9.876;2023-05-16T03:31:36;8.33;;;2.40;;
7308;SDS011;3695;53.330;9.876;2023-05-16T03:34:02;12.70;;;2.80;;
7308;SDS011;3695;53.330;9.876;2023-05-16T03:36:28;14.03;;;2.70;;
7308;SDS011;3695;53.330;9.876;2023-05-16T03:38:55;14.47;;;2.50;;
7308;SDS011;3695;53.330;9.876;2023-05-16T03:41:23;12.57;;;2.63;;
7308;SDS011;3695;53.330;9.876;2023-05-16T03:43:50;16.40;;;3.00;;
7308;SDS011;3695;53.330;9.876;2023-05-16T03:46:16;13.53;;;2.70;;
7308;SDS011;3695;53.330;9.876;2023-05-16T03:48:43;12.83;;;2.67;;
7308;SDS011;3695;53.330;9.876;2023-05-16T03:51:09;15.07;;;2.93;;
7308;SDS011;3695;53.330;9.876;2023-05-16T03:53:36;17.93;;;3.30;;
7308;SDS011;3695;53.330;9.876;2023-05-16T03:56:02;14.87;;;2.83;;
7308;SDS011;3695;53.330;9.876;2023-05-16T03:58:30;13.63;;;3.30;;
7308;SDS011;3695;53.330;9.876;2023-05-16T04:00:57;11.37;;;2.83;;
7308;SDS011;3695;53.330;9.876;2023-05-16T04:03:23;14.47;;;2.67;;
7308;SDS011;3695;53.330;9.876;2023-05-16T04:05:52;14.57;;;2.87;;
7308;SDS011;3695;53.330;9.876;2023-05-16T04:08:19;11.20;;;4.07;;
7308;SDS011;3695;53.330;9.876;2023-05-16T04:10:45;11.37;;;2.60;;
7308;SDS011;3695;53.330;9.876;2023-05-16T04:13:12;13.00;;;2.30;;
7308;SDS011;3695;53.330;9.876;2023-05-16T04:15:40;14.90;;;2.70;;
7308;SDS011;3695;53.330;9.876;2023-05-16T04:18:07;14.73;;;3.30;;
7308;SDS011;3695;53.330;9.876;2023-05-16T04:20:34;14.07;;;3.27;;
7308;SDS011;3695;53.330;9.876;2023-05-16T04:23:00;11.87;;;2.73;;
7308;SDS011;3695;53.330;9.876;2023-05-16T04:25:27;15.60;;;2.77;;
7308;SDS011;3695;53.330;9.876;2023-05-16T04:27:53;11.57;;;2.43;;
7308;SDS011;3695;53.330;9.876;2023-05-16T04:30:20;8.47;;;1.90;;
7308;SDS011;3695;53.330;9.876;2023-05-16T04:32:47;9.00;;;2.37;;
7308;SDS011;3695;53.330;9.876;2023-05-16T04:35:14;15.23;;;3.30;;
7308;SDS011;3695;53.330;9.876;2023-05-16T04:37:40;13.67;;;2.53;;
7308;SDS011;3695;53.330;9.876;2023-05-16T04:40:08;16.13;;;2.67;;
7308;SDS011;3695;53.330;9.876;2023-05-16T04:42:35;11.50;;;2.40;;
7308;SDS011;3695;53.330;9.876;2023-05-16T04:45:01;17.73;;;2.80;;
7308;SDS011;3695;53.330;9.876;2023-05-16T04:47:30;12.83;;;2.30;;
7308;SDS011;3695;53.330;9.876;2023-05-16T04:49:59;23.37;;;4.53;;
7308;SDS011;3695;53.330;9.876;2023-05-16T04:52:25;13.10;;;3.33;;
7308;SDS011;3695;53.330;9.876;2023-05-16T04:54:51;22.37;;;3.20;;
7308;SDS011;3695;53.330;9.876;2023-05-16T04:57:18;9.47;;;2.03;;
7308;SDS011;3695;53.330;9.876;2023-05-16T04:59:44;17.53;;;3.20;;
7308;SDS011;3695;53.330;9.876;2023-05-16T05:02:11;15.33;;;2.57;;
7308;SDS011;3695;53.330;9.876;2023-05-16T05:04:37;15.53;;;3.87;;
7308;SDS011;3695;53.330;9.876;2023-05-16T05:07:05;11.33;;;2.43;;
7308;SDS011;3695;53.330;9.876;2023-05-16T05:09:32;11.73;;;2.53;;
7308;SDS011;3695;53.330;9.876;2023-05-16T05:11:59;8.57;;;1.73;;
7308;SDS011;3695;53.330;9.876;2023-05-16T05:14:25;13.73;;;2.33;;
7308;SDS011;3695;53.330;9.876;2023-05-16T05:16:51;13.07;;;2.77;;
7308;SDS011;3695;53.330;9.876;2023-05-16T05:19:18;12.33;;;2.60;;
7308;SDS011;3695;53.330;9.876;2023-05-16T05:21:44;16.53;;;3.00;;
7308;SDS011;3695;53.330;9.876;2023-05-16T05:24:12;6.87;;;2.00;;
7308;SDS011;3695;53.330;9.876;2023-05-16T05:26:38;17.20;;;3.10;;
7308;SDS011;3695;53.330;9.876;2023-05-16T05:29:05;14.60;;;2.70;;
7308;SDS011;3695;53.330;9.876;2023-05-16T05:31:31;12.67;;;2.73;;
7308;SDS011;3695;53.330;9.876;2023-05-16T05:33:59;11.47;;;2.13;;
7308;SDS011;3695;53.330;9.876;2023-05-16T05:36:25;16.73;;;2.97;;
7308;SDS011;3695;53.330;9.876;2023-05-16T05:38:51;12.50;;;2.30;;
7308;SDS011;3695;53.330;9.876;2023-05-16T05:41:19;10.20;;;2.00;;
7308;SDS011;3695;53.330;9.876;2023-05-16T05:43:46;12.97;;;2.47;;
7308;SDS011;3695;53.330;9.876;2023-05-16T05:46:13;11.10;;;3.00;;
7308;SDS011;3695;53.330;9.876;2023-05-16T05:48:40;11.13;;;2.37;;
7308;SDS011;3695;53.330;9.876;2023-05-16T05:51:07;8.00;;;3.00;;
7308;SDS011;3695;53.330;9.876;2023-05-16T05:53:33;19.10;;;2.80;;
7308;SDS011;3695;53.330;9.876;2023-05-16T05:56:00;14.67;;;2.90;;
7308;SDS011;3695;53.330;9.876;2023-05-16T05:58:28;9.67;;;2.10;;
7308;SDS011;3695;53.330;9.876;2023-05-16T06:00:54;13.67;;;2.50;;
7308;SDS011;3695;53.330;9.876;2023-05-16T06:03:21;9.70;;;2.00;;
7308;SDS011;3695;53.330;9.876;2023-05-16T06:05:47;10.37;;;2.67;;
7308;SDS011;3695;53.330;9.876;2023-05-16T06:08:14;11.10;;;1.87;;
7308;SDS011;3695;53.330;9.876;2023-05-16T06:10:40;11.83;;;2.07;;
7308;SDS011;3695;53.330;9.876;2023-05-16T06:13:06;5.63;;;1.67;;
7308;SDS011;3695;53.330;9.876;2023-05-16T06:15:34;7.63;;;2.30;;
7308;SDS011;3695;53.330;9.876;2023-05-16T06:18:01;14.47;;;2.27;;
7308;SDS011;3695;53.330;9.876;2023-05-16T06:20:27;13.67;;;3.17;;
7308;SDS011;3695;53.330;9.876;2023-05-16T06:22:54;6.30;;;1.53;;
7308;SDS011;3695;53.330;9.876;2023-05-16T06:25:21;7.37;;;1.93;;
7308;SDS011;3695;53.330;9.876;2023-05-16T06:27:47;10.33;;;1.70;;
7308;SDS011;3695;53.330;9.876;2023-05-16T06:30:13;6.70;;;2.00;;
7308;SDS011;3695;53.330;9.876;2023-05-16T06:32:42;8.93;;;2.30;;
7308;SDS011;3695;53.330;9.876;2023-05-16T06:35:08;12.63;;;2.67;;
7308;SDS011;3695;53.330;9.876;2023-05-16T06:37:35;9.73;;;2.00;;
7308;SDS011;3695;53.330;9.876;2023-05-16T06:40:01;10.23;;;2.03;;
7308;SDS011;3695;53.330;9.876;2023-05-16T06:42:28;13.63;;;2.10;;
7308;SDS011;3695;53.330;9.876;2023-05-16T06:44:55;8.63;;;2.70;;
7308;SDS011;3695;53.330;9.876;2023-05-16T06:47:21;7.60;;;2.10;;
7308;SDS011;3695;53.330;9.876;2023-05-16T06:49:49;8.17;;;1.93;;
7308;SDS011;3695;53.330;9.876;2023-05-16T06:52:16;7.67;;;1.63;;
7308;SDS011;3695;53.330;9.876;2023-05-16T06:54:42;11.43;;;2.10;;
7308;SDS011;3695;53.330;9.876;2023-05-16T06:57:09;8.93;;;1.67;;
7308;SDS011;3695;53.330;9.876;2023-05-16T06:59:35;12.07;;;2.67;;
7308;SDS011;3695;53.330;9.876;2023-05-16T07:02:01;9.13;;;1.80;;
7308;SDS011;3695;53.330;9.876;2023-05-16T07:04:28;6.63;;;1.60;;
7308;SDS011;3695;53.330;9.876;2023-05-16T07:06:56;7.87;;;1.80;;
7308;SDS011;3695;53.330;9.876;2023-05-16T07:09:23;12.77;;;2.00;;
7308;SDS011;3695;53.330;9.876;2023-05-16T07:11:49;9.63;;;1.40;;
7308;SDS011;3695;53.330;9.876;2023-05-16T07:14:15;7.73;;;1.70;;
7308;SDS011;3695;53.330;9.876;2023-05-16T07:16:42;4.90;;;1.57;;
7308;SDS011;3695;53.330;9.876;2023-05-16T07:19:08;5.73;;;2.07;;
7308;SDS011;3695;53.330;9.876;2023-05-16T07:21:35;9.87;;;1.80;;
7308;SDS011;3695;53.330;9.876;2023-05-16T07:24:03;6.40;;;2.10;;
7308;SDS011;3695;53.330;9.876;2023-05-16T07:26:30;9.80;;;1.57;;
7308;SDS011;3695;53.330;9.876;2023-05-16T07:28:57;14.20;;;1.90;;
7308;SDS011;3695;53.330;9.876;2023-05-16T07:31:23;6.43;;;1.70;;
7308;SDS011;3695;53.330;9.876;2023-05-16T07:33:49;5.97;;;1.70;;
7308;SDS011;3695;53.330;9.876;2023-05-16T07:36:16;7.90;;;2.03;;
7308;SDS011;3695;53.330;9.876;2023-05-16T07:38:42;4.50;;;1.27;;
7308;SDS011;3695;53.330;9.876;2023-05-16T07:41:11;5.03;;;1.40;;
7308;SDS011;3695;53.330;9.876;2023-05-16T07:43:37;5.30;;;1.30;;
7308;SDS011;3695;53.330;9.876;2023-05-16T07:46:04;9.13;;;2.10;;
7308;SDS011;3695;53.330;9.876;2023-05-16T07:48:31;9.10;;;1.77;;
7308;SDS011;3695;53.330;9.876;2023-05-16T07:50:57;7.57;;;1.87;;
7308;SDS011;3695;53.330;9.876;2023-05-16T07:53:23;8.37;;;2.13;;
7308;SDS011;3695;53.330;9.876;2023-05-16T07:55:50;7.13;;;2.40;;
7308;SDS011;3695;53.330;9.876;2023-05-16T07:58:18;8.00;;;1.90;;
7308;SDS011;3695;53.330;9.876;2023-05-16T08:00:44;9.43;;;2.17;;
7308;SDS011;3695;53.330;9.876;2023-05-16T08:03:11;7.40;;;1.93;;
7308;SDS011;3695;53.330;9.876;2023-05-16T08:05:37;9.03;;;1.47;;
7308;SDS011;3695;53.330;9.876;2023-05-16T08:08:04;7.93;;;1.73;;
7308;SDS011;3695;53.330;9.876;2023-05-16T08:10:31;9.93;;;1.77;;
7308;SDS011;3695;53.330;9.876;2023-05-16T08:12:57;9.20;;;1.57;;
7308;SDS011;3695;53.330;9.876;2023-05-16T08:15:25;10.17;;;1.97;;
7308;SDS011;3695;53.330;9.876;2023-05-16T08:17:53;4.60;;;1.33;;
7308;SDS011;3695;53.330;9.876;2023-05-16T08:20:20;5.00;;;1.37;;
7308;SDS011;3695;53.330;9.876;2023-05-16T08:22:46;7.40;;;1.83;;
7308;SDS011;3695;53.330;9.876;2023-05-16T08:25:13;5.63;;;1.20;;
7308;SDS011;3695;53.330;9.876;2023-05-16T08:27:39;7.30;;;1.97;;
7308;SDS011;3695;53.330;9.876;2023-05-16T08:30:07;5.07;;;1.80;;
7308;SDS011;3695;53.330;9.876;2023-05-16T08:32:37;4.97;;;1.30;;
7308;SDS011;3695;53.330;9.876;2023-05-16T08:35:04;6.73;;;1.50;;
7308;SDS011;3695;53.330;9.876;2023-05-16T08:37:31;8.47;;;1.70;;
7308;SDS011;3695;53.330;9.876;2023-05-16T08:39:57;7.13;;;1.30;;
7308;SDS011;3695;53.330;9.876;2023-05-16T08:42:24;7.97;;;1.50;;
7308;SDS011;3695;53.330;9.876;2023-05-16T08:44:51;8.83;;;1.63;;
7308;SDS011;3695;53.330;9.876;2023-05-16T08:47:18;7.50;;;1.50;;
7308;SDS011;3695;53.330;9.876;2023-05-16T08:49:48;6.90;;;1.53;;
7308;SDS011;3695;53.330;9.876;2023-05-16T08:52:17;4.93;;;1.30;;
7308;SDS011;3695;53.330;9.876;2023-05-16T08:54:45;6.27;;;1.53;;
7308;SDS011;3695;53.330;9.876;2023-05-16T08:57:15;4.87;;;1.30;;
7308;SDS011;3695;53.330;9.876;2023-05-16T08:59:42;5.93;;;1.80;;
7308;SDS011;3695;53.330;9.876;2023-05-16T09:02:10;3.97;;;1.50;;
7308;SDS011;3695;53.330;9.876;2023-05-16T09:04:37;7.77;;;1.33;;
7308;SDS011;3695;53.330;9.876;2023-05-16T09:07:06;4.90;;;1.30;;
7308;SDS011;3695;53.330;9.876;2023-05-16T09:09:33;7.73;;;1.93;;
7308;SDS011;3695;53.330;9.876;2023-05-16T09:11:59;10.83;;;1.57;;
7308;SDS011;3695;53.330;9.876;2023-05-16T09:14:26;6.70;;;2.30;;
7308;SDS011;3695;53.330;9.876;2023-05-16T09:17:02;9.87;;;1.90;;
7308;SDS011;3695;53.330;9.876;2023-05-16T09:19:31;8.10;;;1.90;;
7308;SDS011;3695;53.330;9.876;2023-05-16T09:22:02;7.83;;;1.73;;
7308;SDS011;3695;53.330;9.876;2023-05-16T09:24:30;7.13;;;2.00;;
7308;SDS011;3695;53.330;9.876;2023-05-16T09:26:56;7.10;;;1.53;;
7308;SDS011;3695;53.330;9.876;2023-05-16T09:29:23;6.80;;;1.60;;
7308;SDS011;3695;53.330;9.876;2023-05-16T09:31:49;5.37;;;1.30;;
7308;SDS011;3695;53.330;9.876;2023-05-16T09:34:15;8.23;;;1.70;;
7308;SDS011;3695;53.330;9.876;2023-05-16T09:36:42;7.97;;;1.70;;
7308;SDS011;3695;53.330;9.876;2023-05-16T09:39:09;6.77;;;1.93;;
7308;SDS011;3695;53.330;9.876;2023-05-16T09:41:37;8.43;;;1.60;;
7308;SDS011;3695;53.330;9.876;2023-05-16T09:44:04;6.73;;;1.40;;
7308;SDS011;3695;53.330;9.876;2023-05-16T09:46:32;5.00;;;1.10;;
7308;SDS011;3695;53.330;9.876;2023-05-16T09:48:59;6.30;;;1.37;;
7308;SDS011;3695;53.330;9.876;2023-05-16T09:51:25;5.73;;;1.23;;
7308;SDS011;3695;53.330;9.876;2023-05-16T09:53:52;6.57;;;1.20;;
7308;SDS011;3695;53.330;9.876;2023-05-16T09:56:19;4.67;;;1.30;;
7308;SDS011;3695;53.330;9.876;2023-05-16T09:58:47;9.40;;;1.23;;
7308;SDS011;3695;53.330;9.876;2023-05-16T10:01:17;7.23;;;1.20;;
7308;SDS011;3695;53.330;9.876;2023-05-16T10:03:44;4.33;;;1.20;;
7308;SDS011;3695;53.330;9.876;2023-05-16T10:06:11;5.53;;;1.30;;
7308;SDS011;3695;53.330;9.876;2023-05-16T10:08:38;8.30;;;1.50;;
7308;SDS011;3695;53.330;9.876;2023-05-16T10:11:07;2.33;;;0.87;;
7308;SDS011;3695;53.330;9.876;2023-05-16T10:13:35;7.73;;;1.40;;
7308;SDS011;3695;53.330;9.876;2023-05-16T10:16:06;6.43;;;1.20;;
7308;SDS011;3695;53.330;9.876;2023-05-16T10:18:35;5.10;;;1.57;;
7308;SDS011;3695;53.330;9.876;2023-05-16T10:21:04;9.73;;;1.57;;
7308;SDS011;3695;53.330;9.876;2023-05-16T10:23:32;5.23;;;1.60;;
7308;SDS011;3695;53.330;9.876;2023-05-16T10:26:02;6.67;;;1.40;;
7308;SDS011;3695;53.330;9.876;2023-05-16T10:28:30;5.77;;;1.17;;
7308;SDS011;3695;53.330;9.876;2023-05-16T10:30:56;8.53;;;1.27;;
7308;SDS011;3695;53.330;9.876;2023-05-16T10:33:25;5.10;;;1.27;;
7308;SDS011;3695;53.330;9.876;2023-05-16T10:35:52;8.17;;;1.50;;
7308;SDS011;3695;53.330;9.876;2023-05-16T10:38:18;8.67;;;1.43;;
7308;SDS011;3695;53.330;9.876;2023-05-16T10:40:48;7.93;;;1.40;;
7308;SDS011;3695;53.330;9.876;2023-05-16T10:43:22;5.27;;;1.53;;
7308;SDS011;3695;53.330;9.876;2023-05-16T10:45:54;5.03;;;1.27;;
7308;SDS011;3695;53.330;9.876;2023-05-16T10:48:28;4.60;;;1.17;;
7308;SDS011;3695;53.330;9.876;2023-05-16T10:50:56;4.57;;;0.97;;
7308;SDS011;3695;53.330;9.876;2023-05-16T10:53:28;5.53;;;1.63;;
7308;SDS011;3695;53.330;9.876;2023-05-16T10:56:05;8.30;;;1.60;;
7308;SDS011;3695;53.330;9.876;2023-05-16T10:58:40;9.70;;;1.80;;
7308;SDS011;3695;53.330;9.876;2023-05-16T11:01:14;6.40;;;1.67;;
7308;SDS011;3695;53.330;9.876;2023-05-16T11:06:43;7.77;;;1.27;;
7308;SDS011;3695;53.330;9.876;2023-05-16T11:09:18;4.87;;;1.50;;
7308;SDS011;3695;53.330;9.876;2023-05-16T11:11:47;6.50;;;1.23;;
7308;SDS011;3695;53.330;9.876;2023-05-16T11:14:21;6.60;;;1.10;;
7308;SDS011;3695;53.330;9.876;2023-05-16T11:16:48;4.17;;;1.57;;
7308;SDS011;3695;53.330;9.876;2023-05-16T11:19:28;5.60;;;1.30;;
7308;SDS011;3695;53.330;9.876;2023-05-16T11:22:09;4.73;;;1.20;;
7308;SDS011;3695;53.330;9.876;2023-05-16T11:24:47;8.40;;;1.70;;
7308;SDS011;3695;53.330;9.876;2023-05-16T11:27:26;4.37;;;1.60;;
7308;SDS011;3695;53.330;9.876;2023-05-16T11:29:54;5.13;;;1.53;;
7308;SDS011;3695;53.330;9.876;2023-05-16T11:32:23;7.33;;;2.67;;
7308;SDS011;3695;53.330;9.876;2023-05-16T11:34:51;4.87;;;1.47;;
7308;SDS011;3695;53.330;9.876;2023-05-16T11:37:19;6.93;;;1.50;;
7308;SDS011;3695;53.330;9.876;2023-05-16T11:39:46;7.20;;;1.50;;
7308;SDS011;3695;53.330;9.876;2023-05-16T11:42:13;6.67;;;1.47;;
7308;SDS011;3695;53.330;9.876;2023-05-16T11:44:40;8.77;;;2.10;;
7308;SDS011;3695;53.330;9.876;2023-05-16T11:47:07;8.47;;;1.83;;
7308;SDS011;3695;53.330;9.876;2023-05-16T11:49:33;10.93;;;2.47;;
7308;SDS011;3695;53.330;9.876;2023-05-16T11:52:02;11.07;;;2.07;;
7308;SDS011;3695;53.330;9.876;2023-05-16T11:54:29;9.63;;;1.60;;
7308;SDS011;3695;53.330;9.876;2023-05-16T11:56:55;8.97;;;2.13;;
7308;SDS011;3695;53.330;9.876;2023-05-16T11:59:22;8.13;;;1.80;;
7308;SDS011;3695;53.330;9.876;2023-05-16T12:01:48;6.83;;;1.37;;
7308;SDS011;3695;53.330;9.876;2023-05-16T12:04:15;5.37;;;1.23;;
7308;SDS011;3695;53.330;9.876;2023-05-16T12:06:44;7.43;;;1.67;;
7308;SDS011;3695;53.330;9.876;2023-05-16T12:09:23;8.83;;;2.07;;
7308;SDS011;3695;53.330;9.876;2023-05-16T12:11:50;4.13;;;1.40;;
7308;SDS011;3695;53.330;9.876;2023-05-16T12:14:17;3.13;;;1.20;;
7308;SDS011;3695;53.330;9.876;2023-05-16T12:16:44;4.70;;;1.50;;
7308;SDS011;3695;53.330;9.876;2023-05-16T12:19:12;4.93;;;1.23;;
7308;SDS011;3695;53.330;9.876;2023-05-16T12:21:39;2.87;;;1.23;;
7308;SDS011;3695;53.330;9.876;2023-05-16T12:24:07;6.63;;;1.30;;
7308;SDS011;3695;53.330;9.876;2023-05-16T12:26:37;3.17;;;1.20;;
7308;SDS011;3695;53.330;9.876;2023-05-16T12:29:06;3.20;;;0.90;;
7308;SDS011;3695;53.330;9.876;2023-05-16T12:31:35;1.93;;;1.23;;
7308;SDS011;3695;53.330;9.876;2023-05-16T12:34:03;3.77;;;1.23;;
7308;SDS011;3695;53.330;9.876;2023-05-16T12:36:30;3.77;;;1.23;;
7308;SDS011;3695;53.330;9.876;2023-05-16T12:38:59;2.87;;;1.00;;
7308;SDS011;3695;53.330;9.876;2023-05-16T12:41:26;4.97;;;0.93;;
7308;SDS011;3695;53.330;9.876;2023-05-16T12:44:06;6.77;;;1.83;;
7308;SDS011;3695;53.330;9.876;2023-05-16T12:46:39;8.50;;;1.13;;
7308;SDS011;3695;53.330;9.876;2023-05-16T12:49:06;5.93;;;1.20;;
7308;SDS011;3695;53.330;9.876;2023-05-16T12:51:33;2.97;;;1.17;;
7308;SDS011;3695;53.330;9.876;2023-05-16T12:54:06;7.90;;;1.13;;
7308;SDS011;3695;53.330;9.876;2023-05-16T12:56:33;3.80;;;1.13;;
7308;SDS011;3695;53.330;9.876;2023-05-16T12:59:00;3.57;;;1.20;;
7308;SDS011;3695;53.330;9.876;2023-05-16T13:01:28;3.83;;;1.23;;
7308;SDS011;3695;53.330;9.876;2023-05-16T13:03:54;5.57;;;1.37;;
7308;SDS011;3695;53.330;9.876;2023-05-16T13:06:21;3.17;;;1.07;;
7308;SDS011;3695;53.330;9.876;2023-05-16T13:08:48;4.63;;;0.97;;
7308;SDS011;3695;53.330;9.876;2023-05-16T13:11:14;4.00;;;1.00;;
7308;SDS011;3695;53.330;9.876;2023-05-16T13:13:40;8.00;;;1.43;;
7308;SDS011;3695;53.330;9.876;2023-05-16T13:16:10;4.73;;;1.67;;
7308;SDS011;3695;53.330;9.876;2023-05-16T13:18:37;6.07;;;1.37;;
7308;SDS011;3695;53.330;9.876;2023-05-16T13:21:04;8.30;;;1.87;;
7308;SDS011;3695;53.330;9.876;2023-05-16T13:23:31;7.07;;;1.50;;
7308;SDS011;3695;53.330;9.876;2023-05-16T13:25:57;7.63;;;1.70;;
7308;SDS011;3695;53.330;9.876;2023-05-16T13:28:24;9.43;;;1.77;;
7308;SDS011;3695;53.330;9.876;2023-05-16T13:30:50;6.30;;;1.60;;
7308;SDS011;3695;53.330;9.876;2023-05-16T13:33:17;4.10;;;1.30;;
7308;SDS011;3695;53.330;9.876;2023-05-16T13:35:44;9.73;;;1.20;;
7308;SDS011;3695;53.330;9.876;2023-05-16T13:38:11;4.73;;;0.87;;
7308;SDS011;3695;53.330;9.876;2023-05-16T13:40:38;5.50;;;1.40;;
7308;SDS011;3695;53.330;9.876;2023-05-16T13:43:05;12.23;;;2.17;;
7308;SDS011;3695;53.330;9.876;2023-05-16T13:45:32;5.13;;;1.20;;
7308;SDS011;3695;53.330;9.876;2023-05-16T13:47:59;4.03;;;1.23;;
7308;SDS011;3695;53.330;9.876;2023-05-16T13:50:25;3.97;;;1.20;;
7308;SDS011;3695;53.330;9.876;2023-05-16T13:52:53;6.27;;;1.20;;
7308;SDS011;3695;53.330;9.876;2023-05-16T13:55:20;3.17;;;0.80;;
7308;SDS011;3695;53.330;9.876;2023-05-16T13:57:46;5.23;;;1.17;;
7308;SDS011;3695;53.330;9.876;2023-05-16T14:00:13;12.07;;;1.53;;
7308;SDS011;3695;53.330;9.876;2023-05-16T14:02:40;5.13;;;0.90;;
7308;SDS011;3695;53.330;9.876;2023-05-16T14:05:08;4.50;;;1.23;;
7308;SDS011;3695;53.330;9.876;2023-05-16T14:07:35;4.77;;;1.07;;
7308;SDS011;3695;53.330;9.876;2023-05-16T14:10:03;4.60;;;1.00;;
7308;SDS011;3695;53.330;9.876;2023-05-16T14:12:30;3.03;;;1.00;;
7308;SDS011;3695;53.330;9.876;2023-05-16T14:14:57;5.00;;;1.07;;
7308;SDS011;3695;53.330;9.876;2023-05-16T14:17:24;1.77;;;0.90;;
7308;SDS011;3695;53.330;9.876;2023-05-16T14:19:50;1.97;;;0.93;;
7308;SDS011;3695;53.330;9.876;2023-05-16T14:22:17;3.03;;;1.00;;
7308;SDS011;3695;53.330;9.876;2023-05-16T14:24:44;3.97;;;1.00;;
7308;SDS011;3695;53.330;9.876;2023-05-16T14:27:12;3.53;;;0.83;;
7308;SDS011;3695;53.330;9.876;2023-05-16T14:29:39;3.63;;;0.90;;
7308;SDS011;3695;53.330;9.876;2023-05-16T14:32:05;3.50;;;1.00;;
7308;SDS011;3695;53.330;9.876;2023-05-16T14:34:32;3.53;;;1.30;;
7308;SDS011;3695;53.330;9.876;2023-05-16T14:36:59;6.70;;;1.27;;
7308;SDS011;3695;53.330;9.876;2023-05-16T14:39:25;4.10;;;1.37;;
7308;SDS011;3695;53.330;9.876;2023-05-16T14:41:52;6.77;;;1.20;;
7308;SDS011;3695;53.330;9.876;2023-05-16T14:44:20;3.23;;;1.00;;
7308;SDS011;3695;53.330;9.876;2023-05-16T14:46:48;5.10;;;1.20;;
7308;SDS011;3695;53.330;9.876;2023-05-16T14:49:15;5.27;;;1.10;;
7308;SDS011;3695;53.330;9.876;2023-05-16T14:51:42;3.80;;;0.90;;
7308;SDS011;3695;53.330;9.876;2023-05-16T14:54:13;4.83;;;1.47;;
7308;SDS011;3695;53.330;9.876;2023-05-16T14:56:40;3.90;;;0.90;;
7308;SDS011;3695;53.330;9.876;2023-05-16T14:59:06;5.97;;;1.43;;
7308;SDS011;3695;53.330;9.876;2023-05-16T15:01:36;5.30;;;1.07;;
7308;SDS011;3695;53.330;9.876;2023-05-16T15:04:03;4.23;;;1.00;;
7308;SDS011;3695;53.330;9.876;2023-05-16T15:06:29;3.97;;;1.07;;
7308;SDS011;3695;53.330;9.876;2023-05-16T15:08:56;4.07;;;1.20;;
7308;SDS011;3695;53.330;9.876;2023-05-16T15:11:22;4.50;;;1.20;;
7308;SDS011;3695;53.330;9.876;2023-05-16T15:13:49;5.30;;;1.30;;
7308;SDS011;3695;53.330;9.876;2023-05-16T15:16:15;4.53;;;0.93;;
7308;SDS011;3695;53.330;9.876;2023-05-16T15:18:43;3.10;;;1.00;;